createdAt,value
2023-05-06T00:01:00.004Z,9.50
2023-05-06T00:02:53.522Z,9.53
2023-05-06T00:04:46.677Z,9.55
2023-05-06T00:06:39.772Z,9.57
2023-05-06T00:08:32.622Z,9.59
2023-05-06T00:10:25.972Z,9.61
2023-05-06T00:12:18.827Z,9.61
2023-05-06T00:14:12.384Z,9.62
2023-05-06T00:16:05.870Z,9.64
2023-05-06T00:17:58.865Z,9.64
2023-05-06T00:19:52.562Z,9.64
2023-05-06T00:21:45.509Z,9.64
2023-05-06T00:23:38.287Z,9.63
2023-05-06T00:25:31.089Z,9.64
2023-05-06T00:27:23.940Z,9.63
2023-05-06T00:29:17.398Z,9.63
2023-05-06T00:31:10.359Z,9.63
2023-05-06T00:33:03.627Z,9.64
2023-05-06T00:34:56.656Z,9.64
2023-05-06T00:36:49.499Z,9.63
2023-05-06T00:38:42.345Z,9.62
2023-05-06T00:40:35.807Z,9.62
2023-05-06T00:42:28.753Z,9.62
2023-05-06T00:44:21.804Z,9.62
2023-05-06T00:46:16.716Z,9.63
2023-05-06T00:48:09.828Z,9.63
2023-05-06T00:50:03.313Z,9.64
2023-05-06T00:51:57.491Z,9.63
2023-05-06T00:53:51.051Z,9.62
2023-05-06T00:55:44.120Z,9.63
2023-05-06T00:57:37.869Z,9.62
2023-05-06T00:59:31.021Z,9.62
2023-05-06T01:01:24.547Z,9.62
2023-05-06T01:03:18.813Z,9.62
2023-05-06T01:05:12.433Z,9.62
2023-05-06T01:07:32.105Z,9.61
2023-05-06T01:09:31.992Z,9.58
2023-05-06T01:11:34.283Z,9.59
2023-05-06T01:13:48.633Z,9.59
2023-05-06T01:15:52.844Z,9.58
2023-05-06T01:17:46.992Z,9.57
2023-05-06T01:19:51.070Z,9.56
2023-05-06T01:21:46.330Z,9.56
2023-05-06T01:23:58.497Z,9.56
2023-05-06T01:25:51.582Z,9.55
2023-05-06T01:27:44.431Z,9.55
2023-05-06T01:29:40.230Z,9.56
2023-05-06T01:31:43.072Z,9.55
2023-05-06T01:34:05.404Z,9.54
2023-05-06T01:36:19.013Z,9.52
2023-05-06T01:38:37.954Z,9.52
2023-05-06T01:40:33.939Z,9.51
2023-05-06T01:42:29.087Z,9.51
2023-05-06T01:44:23.530Z,9.51
2023-05-06T01:46:19.780Z,9.52
2023-05-06T01:48:12.737Z,9.51
2023-05-06T01:50:06.596Z,9.51
2023-05-06T01:51:59.446Z,9.49
2023-05-06T01:53:52.279Z,9.49
2023-05-06T01:55:45.359Z,9.49
2023-05-06T01:57:38.291Z,9.49
2023-05-06T01:59:31.453Z,9.48
2023-05-06T02:01:24.472Z,9.47
2023-05-06T02:03:17.424Z,9.47
2023-05-06T02:05:10.846Z,9.46
2023-05-06T02:07:04.359Z,9.46
2023-05-06T02:08:57.161Z,9.46
2023-05-06T02:10:51.586Z,9.46
2023-05-06T02:12:45.169Z,9.45
2023-05-06T02:14:37.996Z,9.45
2023-05-06T02:16:31.955Z,9.45
2023-05-06T02:18:25.544Z,9.43
2023-05-06T02:20:18.684Z,9.42
2023-05-06T02:22:11.478Z,9.42
2023-05-06T02:24:05.089Z,9.42
2023-05-06T02:25:59.085Z,9.41
2023-05-06T02:27:52.018Z,9.40
2023-05-06T02:29:45.059Z,9.40
2023-05-06T02:31:37.968Z,9.38
2023-05-06T02:33:31.069Z,9.39
2023-05-06T02:35:24.519Z,9.38
2023-05-06T02:37:17.365Z,9.38
2023-05-06T02:39:10.214Z,9.37
2023-05-06T02:41:03.776Z,9.36
2023-05-06T02:42:56.664Z,9.35
2023-05-06T02:44:49.671Z,9.35
2023-05-06T02:46:43.853Z,9.33
2023-05-06T02:48:38.327Z,9.33
2023-05-06T02:50:31.281Z,9.32
2023-05-06T02:52:24.432Z,9.31
2023-05-06T02:54:17.291Z,9.29
2023-05-06T02:56:10.120Z,9.29
2023-05-06T02:58:03.024Z,9.29
2023-05-06T02:59:56.018Z,9.27
2023-05-06T03:01:48.866Z,9.26
2023-05-06T03:03:42.221Z,9.26
2023-05-06T03:05:35.070Z,9.25
2023-05-06T03:07:27.922Z,9.24
2023-05-06T03:09:20.765Z,9.23
2023-05-06T03:11:13.811Z,9.22
2023-05-06T03:13:06.779Z,9.21
2023-05-06T03:14:59.704Z,9.19
2023-05-06T03:16:52.655Z,9.19
2023-05-06T03:18:46.219Z,9.18
2023-05-06T03:20:39.064Z,9.19
2023-05-06T03:22:32.117Z,9.18
2023-05-06T03:24:25.068Z,9.18
2023-05-06T03:26:18.212Z,9.17
2023-05-06T03:28:12.104Z,9.15
2023-05-06T03:30:06.770Z,9.14
2023-05-06T03:32:03.720Z,9.13
2023-05-06T03:33:57.282Z,9.12
2023-05-06T03:35:50.838Z,9.11
2023-05-06T03:37:43.892Z,9.10
2023-05-06T03:39:36.843Z,9.07
2023-05-06T03:41:29.990Z,9.08
2023-05-06T03:43:23.288Z,9.09
2023-05-06T03:45:17.562Z,9.08
2023-05-06T03:47:11.228Z,9.07
2023-05-06T03:49:04.151Z,9.07
2023-05-06T03:50:57.303Z,9.08
2023-05-06T03:52:50.648Z,9.06
2023-05-06T03:54:43.402Z,9.06
2023-05-06T03:56:36.263Z,9.05
2023-05-06T03:58:30.003Z,9.06
2023-05-06T04:00:23.462Z,9.06
2023-05-06T04:02:17.839Z,9.07
2023-05-06T04:04:11.076Z,9.08
2023-05-06T04:06:06.495Z,9.09
2023-05-06T04:07:59.455Z,9.09
2023-05-06T04:09:52.624Z,9.10
2023-05-06T04:11:45.971Z,9.10
2023-05-06T04:13:39.836Z,9.11
2023-05-06T04:15:37.903Z,9.12
2023-05-06T04:17:33.357Z,9.13
2023-05-06T04:19:27.073Z,9.13
2023-05-06T04:21:20.064Z,9.15
2023-05-06T04:23:20.659Z,9.16
2023-05-06T04:25:14.115Z,9.16
2023-05-06T04:27:06.957Z,9.18
2023-05-06T04:29:00.215Z,9.17
2023-05-06T04:30:53.672Z,9.18
2023-05-06T04:32:48.924Z,9.18
2023-05-06T04:34:42.130Z,9.19
2023-05-06T04:36:38.330Z,9.21
2023-05-06T04:38:47.382Z,9.23
2023-05-06T04:40:40.946Z,9.25
2023-05-06T04:42:34.822Z,9.27
2023-05-06T04:44:34.140Z,9.28
2023-05-06T04:46:28.292Z,9.30
2023-05-06T04:48:22.697Z,9.33
2023-05-06T04:50:16.116Z,9.35
2023-05-06T04:52:08.978Z,9.37
2023-05-06T04:54:02.231Z,9.40
2023-05-06T04:55:56.002Z,9.42
2023-05-06T04:57:49.050Z,9.43
2023-05-06T04:59:42.766Z,9.45
2023-05-06T05:01:36.397Z,9.46
2023-05-06T05:03:29.433Z,9.48
2023-05-06T05:05:24.225Z,9.50
2023-05-06T05:07:17.364Z,9.52
2023-05-06T05:09:10.833Z,9.53
2023-05-06T05:11:09.014Z,9.54
2023-05-06T05:13:01.904Z,9.56
2023-05-06T05:14:55.112Z,9.57
2023-05-06T05:16:48.690Z,9.57
2023-05-06T05:18:41.823Z,9.58
2023-05-06T05:20:40.509Z,9.57
2023-05-06T05:22:34.483Z,9.57
2023-05-06T05:24:27.433Z,9.56
2023-05-06T05:26:20.373Z,9.57
2023-05-06T05:28:13.425Z,9.59
2023-05-06T05:30:08.092Z,9.59
2023-05-06T05:32:02.904Z,9.58
2023-05-06T05:33:55.968Z,9.58
2023-05-06T05:35:49.004Z,9.58
2023-05-06T05:37:42.064Z,9.59
2023-05-06T05:39:35.348Z,9.59
2023-05-06T05:41:28.477Z,9.60
2023-05-06T05:43:22.842Z,9.60
2023-05-06T05:45:15.998Z,9.60
2023-05-06T05:47:09.174Z,9.61
2023-05-06T05:49:02.019Z,9.61
2023-05-06T05:50:55.254Z,9.60
2023-05-06T05:52:48.714Z,9.58
2023-05-06T05:54:43.201Z,9.57
2023-05-06T05:56:36.172Z,9.56
2023-05-06T05:58:29.186Z,9.56
2023-05-06T06:00:23.677Z,9.56
2023-05-06T06:02:18.785Z,9.55
2023-05-06T06:04:11.848Z,9.55
2023-05-06T06:06:04.778Z,9.54
2023-05-06T06:07:59.413Z,9.53
2023-05-06T06:09:53.010Z,9.53
2023-05-06T06:11:45.872Z,9.51
2023-05-06T06:13:38.900Z,9.50
2023-05-06T06:15:31.766Z,9.49
2023-05-06T06:17:24.956Z,9.46
2023-05-06T06:19:18.597Z,9.45
2023-05-06T06:21:11.864Z,9.44
2023-05-06T06:23:05.098Z,9.44
2023-05-06T06:24:57.940Z,9.45
2023-05-06T06:26:50.992Z,9.45
2023-05-06T06:28:44.998Z,9.45
2023-05-06T06:30:38.120Z,9.45
2023-05-06T06:32:31.206Z,9.46
2023-05-06T06:34:24.675Z,9.48
2023-05-06T06:36:17.579Z,9.51
2023-05-06T06:38:10.648Z,9.56
2023-05-06T06:40:04.602Z,9.57
2023-05-06T06:41:58.589Z,9.58
2023-05-06T06:43:51.384Z,9.61
2023-05-06T06:45:48.325Z,9.61
2023-05-06T06:47:41.575Z,9.59
2023-05-06T06:49:34.471Z,9.58
2023-05-06T06:51:27.704Z,9.59
2023-05-06T06:53:21.075Z,9.59
2023-05-06T06:55:13.922Z,9.59
2023-05-06T06:57:07.080Z,9.56
2023-05-06T06:59:00.025Z,9.55
2023-05-06T07:00:52.900Z,9.54
2023-05-06T07:02:48.267Z,9.52
2023-05-06T07:04:41.214Z,9.50
2023-05-06T07:06:34.166Z,9.49
2023-05-06T07:08:27.426Z,9.47
2023-05-06T07:10:20.272Z,9.45
2023-05-06T07:12:13.117Z,9.44
2023-05-06T07:14:06.070Z,9.42
2023-05-06T07:15:59.013Z,9.39
2023-05-06T07:17:51.945Z,9.39
2023-05-06T07:19:44.912Z,9.37
2023-05-06T07:21:37.750Z,9.36
2023-05-06T07:23:32.043Z,9.35
2023-05-06T07:25:25.794Z,9.34
2023-05-06T07:27:18.651Z,9.33
2023-05-06T07:29:11.489Z,9.33
2023-05-06T07:31:04.431Z,9.32
2023-05-06T07:32:57.548Z,9.32
2023-05-06T07:34:50.545Z,9.29
2023-05-06T07:36:44.905Z,9.26
2023-05-06T07:38:37.773Z,9.23
2023-05-06T07:40:30.719Z,9.20
2023-05-06T07:42:23.767Z,9.18
2023-05-06T07:44:16.616Z,9.15
2023-05-06T07:46:09.505Z,9.11
2023-05-06T07:48:02.428Z,9.08
2023-05-06T07:49:56.081Z,9.05
2023-05-06T07:51:49.049Z,9.03
2023-05-06T07:53:42.908Z,9.02
2023-05-06T07:55:37.781Z,9.00
2023-05-06T07:57:30.629Z,8.99
2023-05-06T07:59:23.485Z,8.96
2023-05-06T08:01:16.525Z,8.95
2023-05-06T08:03:09.435Z,8.95
2023-05-06T08:05:02.435Z,8.93
2023-05-06T08:06:55.267Z,8.90
2023-05-06T08:08:48.117Z,8.91
2023-05-06T08:10:41.097Z,8.91
2023-05-06T08:12:35.989Z,8.90
2023-05-06T08:14:29.209Z,8.90
2023-05-06T08:16:23.823Z,8.88
2023-05-06T08:18:25.883Z,8.87
2023-05-06T08:20:25.889Z,8.83
2023-05-06T08:22:18.731Z,8.81
2023-05-06T08:24:13.929Z,8.80
2023-05-06T08:26:06.971Z,8.77
2023-05-06T08:28:00.156Z,8.74
2023-05-06T08:29:53.181Z,8.71
2023-05-06T08:31:47.304Z,8.68
2023-05-06T08:33:40.320Z,8.66
2023-05-06T08:35:33.146Z,8.65
2023-05-06T08:37:26.414Z,8.67
2023-05-06T08:39:19.245Z,8.68
2023-05-06T08:41:17.213Z,8.67
2023-05-06T08:43:18.262Z,8.64
2023-05-06T08:45:11.814Z,8.61
2023-05-06T08:47:05.481Z,8.61
2023-05-06T08:48:59.662Z,8.60
2023-05-06T08:50:54.738Z,8.59
2023-05-06T08:52:47.921Z,8.56
2023-05-06T08:54:42.348Z,8.55
2023-05-06T08:56:36.979Z,8.53
2023-05-06T08:58:34.654Z,8.50
2023-05-06T09:00:27.691Z,8.47
2023-05-06T09:02:22.475Z,8.46
2023-05-06T09:04:17.111Z,8.46
2023-05-06T09:06:10.738Z,8.45
2023-05-06T09:08:03.675Z,8.42
2023-05-06T09:09:56.533Z,8.41
2023-05-06T09:11:55.312Z,8.40
2023-05-06T09:13:48.171Z,8.39
2023-05-06T09:15:47.376Z,8.37
2023-05-06T09:17:40.250Z,8.34
2023-05-06T09:19:38.371Z,8.29
2023-05-06T09:21:38.691Z,8.29
2023-05-06T09:23:32.146Z,8.29
2023-05-06T09:25:25.318Z,8.29
2023-05-06T09:27:19.488Z,8.30
2023-05-06T09:29:12.753Z,8.29
2023-05-06T09:31:06.915Z,8.30
2023-05-06T09:33:04.883Z,8.30
2023-05-06T09:34:58.239Z,8.29
2023-05-06T09:36:52.926Z,8.27
2023-05-06T09:38:45.871Z,8.28
2023-05-06T09:40:39.442Z,8.27
2023-05-06T09:42:33.306Z,8.26
2023-05-06T09:44:26.971Z,8.25
2023-05-06T09:46:21.993Z,8.25
2023-05-06T09:48:15.251Z,8.25
2023-05-06T09:50:09.449Z,8.27
2023-05-06T09:52:03.009Z,8.27
2023-05-06T09:53:57.978Z,8.29
2023-05-06T09:55:51.629Z,8.29
2023-05-06T09:57:44.850Z,8.29
2023-05-06T09:59:38.546Z,8.28
2023-05-06T10:01:37.215Z,8.29
2023-05-06T10:03:31.192Z,8.32
2023-05-06T10:05:26.135Z,8.33
2023-05-06T10:07:22.954Z,8.33
2023-05-06T10:09:16.300Z,8.34
2023-05-06T10:11:10.063Z,8.35
2023-05-06T10:13:07.179Z,8.35
2023-05-06T10:15:00.179Z,8.35
2023-05-06T10:16:54.432Z,8.35
2023-05-06T10:18:49.922Z,8.36
2023-05-06T10:20:43.813Z,8.35
2023-05-06T10:22:54.593Z,8.35
2023-05-06T10:25:16.917Z,8.35
2023-05-06T10:27:12.741Z,8.34
2023-05-06T10:29:10.593Z,8.31
2023-05-06T10:31:07.850Z,8.26
2023-05-06T10:33:05.726Z,8.23
2023-05-06T10:35:09.657Z,8.20
2023-05-06T10:37:06.423Z,8.15
2023-05-06T10:39:01.830Z,8.11
2023-05-06T10:40:55.717Z,8.08
2023-05-06T10:42:48.628Z,8.05
2023-05-06T10:45:01.587Z,8.03
2023-05-06T10:47:01.694Z,8.00
2023-05-06T10:49:06.785Z,7.97
2023-05-06T10:51:23.235Z,7.95
2023-05-06T10:53:16.184Z,7.91
2023-05-06T10:55:26.538Z,7.89
2023-05-06T10:57:22.757Z,7.87
2023-05-06T10:59:21.284Z,7.85
2023-05-06T11:01:15.212Z,7.83
2023-05-06T11:03:18.769Z,7.83
2023-05-06T11:06:05.552Z,7.83
2023-05-06T11:08:13.307Z,7.82
2023-05-06T11:10:08.132Z,7.82
2023-05-06T11:12:06.098Z,7.82
2023-05-06T11:14:15.618Z,7.82
2023-05-06T11:16:08.756Z,7.84
2023-05-06T11:21:05.702Z,7.84
2023-05-06T11:23:07.272Z,7.85
2023-05-06T11:25:12.586Z,7.87
2023-05-06T11:27:11.656Z,7.87
2023-05-06T11:29:09.928Z,7.87
2023-05-06T11:31:04.007Z,7.85
2023-05-06T11:33:05.413Z,7.83
2023-05-06T11:34:59.785Z,7.81
2023-05-06T11:36:58.345Z,7.78
2023-05-06T11:38:53.015Z,7.77
2023-05-06T11:40:48.367Z,7.77
2023-05-06T11:42:41.413Z,7.76
2023-05-06T11:44:36.822Z,7.75
2023-05-06T11:46:33.490Z,7.74
2023-05-06T11:48:26.493Z,7.73
2023-05-06T11:50:22.408Z,7.74
2023-05-06T11:52:15.456Z,7.73
2023-05-06T11:54:10.363Z,7.73
2023-05-06T11:56:05.759Z,7.70
2023-05-06T11:58:05.883Z,7.69
2023-05-06T11:59:58.742Z,7.69
2023-05-06T12:01:51.972Z,7.66
2023-05-06T12:03:45.037Z,7.65
2023-05-06T12:05:38.081Z,7.63
2023-05-06T12:07:31.384Z,7.61
2023-05-06T12:09:25.200Z,7.61
2023-05-06T12:11:18.105Z,7.60
2023-05-06T12:13:12.038Z,7.58
2023-05-06T12:15:05.787Z,7.57
2023-05-06T12:16:58.935Z,7.56
2023-05-06T12:18:53.828Z,7.55
2023-05-06T12:20:47.606Z,7.54
2023-05-06T12:22:40.677Z,7.55
2023-05-06T12:24:33.594Z,7.56
2023-05-06T12:26:32.072Z,7.56
2023-05-06T12:28:26.865Z,7.58
2023-05-06T12:30:30.689Z,7.58
2023-05-06T12:32:24.118Z,7.58
2023-05-06T12:34:18.624Z,7.57
2023-05-06T12:36:11.764Z,7.57
2023-05-06T12:38:14.751Z,7.56
2023-05-06T12:40:17.528Z,7.56
2023-05-06T12:42:10.479Z,7.54
2023-05-06T12:44:24.719Z,7.54
2023-05-06T12:46:19.280Z,7.53
2023-05-06T12:48:16.664Z,7.53
2023-05-06T12:50:10.255Z,7.53
2023-05-06T12:52:08.303Z,7.53
2023-05-06T12:54:01.142Z,7.53
2023-05-06T12:55:54.191Z,7.53
2023-05-06T12:57:48.451Z,7.52
2023-05-06T12:59:41.630Z,7.53
2023-05-06T13:01:34.654Z,7.54
2023-05-06T13:03:28.045Z,7.55
2023-05-06T13:05:21.860Z,7.56
2023-05-06T13:07:14.748Z,7.56
2023-05-06T13:09:07.699Z,7.57
2023-05-06T13:11:02.561Z,7.58
2023-05-06T13:12:55.592Z,7.59
2023-05-06T13:14:48.543Z,7.60
2023-05-06T13:16:42.283Z,7.62
2023-05-06T13:18:36.120Z,7.63
2023-05-06T13:20:29.078Z,7.64
2023-05-06T13:22:21.888Z,7.64
2023-05-06T13:24:14.761Z,7.65
2023-05-06T13:26:07.628Z,7.66
2023-05-06T13:28:00.561Z,7.66
2023-05-06T13:29:53.412Z,7.68
2023-05-06T13:31:46.250Z,7.68
2023-05-06T13:33:39.194Z,7.69
2023-05-06T13:35:32.143Z,7.71
2023-05-06T13:37:24.988Z,7.72
2023-05-06T13:39:17.836Z,7.74
2023-05-06T13:41:10.888Z,7.75
2023-05-06T13:43:03.734Z,7.75
2023-05-06T13:44:56.686Z,7.76
2023-05-06T13:46:49.815Z,7.77
2023-05-06T13:48:42.768Z,7.79
2023-05-06T13:50:36.339Z,7.80
2023-05-06T13:52:29.320Z,7.81
2023-05-06T13:54:22.675Z,7.82
2023-05-06T13:56:15.704Z,7.83
2023-05-06T13:58:09.171Z,7.85
2023-05-06T14:00:02.154Z,7.86
2023-05-06T14:02:00.404Z,7.88
2023-05-06T14:03:55.482Z,7.89
2023-05-06T14:05:48.435Z,7.91
2023-05-06T14:07:41.892Z,7.93
2023-05-06T14:09:35.795Z,7.95
2023-05-06T14:11:28.585Z,7.96
2023-05-06T14:13:21.713Z,7.97
2023-05-06T14:15:15.116Z,7.98
2023-05-06T14:17:08.013Z,8.00
2023-05-06T14:19:01.096Z,8.02
2023-05-06T14:20:54.392Z,8.04
2023-05-06T14:22:48.241Z,8.07
2023-05-06T14:24:41.080Z,8.09
2023-05-06T14:26:33.962Z,8.10
2023-05-06T14:28:26.946Z,8.10
2023-05-06T14:30:20.645Z,8.09
2023-05-06T14:32:13.592Z,8.09
2023-05-06T14:34:06.452Z,8.10
2023-05-06T14:36:00.701Z,8.12
2023-05-06T14:37:53.562Z,8.15
2023-05-06T14:39:46.407Z,8.16
2023-05-06T14:41:39.252Z,8.17
2023-05-06T14:43:32.097Z,8.19
2023-05-06T14:45:25.030Z,8.22
2023-05-06T14:47:18.306Z,8.27
2023-05-06T14:49:11.247Z,8.32
2023-05-06T14:51:04.096Z,8.33
2023-05-06T14:52:57.254Z,8.35
2023-05-06T14:54:50.094Z,8.38
2023-05-06T14:56:46.946Z,8.40
2023-05-06T14:58:39.786Z,8.43
2023-05-06T15:00:32.829Z,8.47
2023-05-06T15:02:26.011Z,8.50
2023-05-06T15:04:18.939Z,8.54
2023-05-06T15:06:12.703Z,8.53
2023-05-06T15:08:05.896Z,8.55
2023-05-06T15:09:58.804Z,8.55
2023-05-06T15:11:51.866Z,8.55
2023-05-06T15:13:44.714Z,8.54
2023-05-06T15:15:37.583Z,8.53
2023-05-06T15:17:30.600Z,8.53
2023-05-06T15:19:23.949Z,8.52
2023-05-06T15:21:17.588Z,8.53
2023-05-06T15:23:10.717Z,8.54
2023-05-06T15:25:03.837Z,8.54
2023-05-06T15:26:57.513Z,8.53
2023-05-06T15:28:50.848Z,8.51
2023-05-06T15:30:43.788Z,8.50
2023-05-06T15:32:36.682Z,8.50
2023-05-06T15:34:29.570Z,8.51
2023-05-06T15:36:22.429Z,8.49
2023-05-06T15:38:15.584Z,8.45
2023-05-06T15:40:12.590Z,8.43
2023-05-06T15:42:06.302Z,8.41
2023-05-06T15:44:01.085Z,8.40
2023-05-06T15:45:53.963Z,8.38
2023-05-06T15:47:48.440Z,8.38
2023-05-06T15:51:37.176Z,8.35
2023-05-06T15:53:30.126Z,8.31
2023-05-06T15:55:25.110Z,8.29
2023-05-06T15:57:18.529Z,8.27
2023-05-06T15:59:12.358Z,8.27
2023-05-06T16:01:05.622Z,8.26
2023-05-06T16:02:58.574Z,8.25
2023-05-06T16:04:51.973Z,8.26
2023-05-06T16:06:45.074Z,8.25
2023-05-06T16:08:38.917Z,8.24
2023-05-06T16:10:31.886Z,8.23
2023-05-06T16:12:24.724Z,8.23
2023-05-06T16:14:17.877Z,8.23
2023-05-06T16:16:10.844Z,8.25
2023-05-06T16:18:03.928Z,8.25
2023-05-06T16:19:56.808Z,8.25
2023-05-06T16:21:49.697Z,8.25
2023-05-06T16:23:42.514Z,8.24
2023-05-06T16:25:37.780Z,8.24
2023-05-06T16:27:30.660Z,8.23
2023-05-06T16:29:23.416Z,8.23
2023-05-06T16:31:16.385Z,8.23
2023-05-06T16:33:09.336Z,8.23
2023-05-06T16:35:02.302Z,8.24
2023-05-06T16:36:55.218Z,8.26
2023-05-06T16:38:48.047Z,8.26
2023-05-06T16:40:44.903Z,8.27
2023-05-06T16:42:37.740Z,8.27
2023-05-06T16:44:30.578Z,8.26
2023-05-06T16:46:24.550Z,8.26
2023-05-06T16:48:17.805Z,8.25
2023-05-06T16:50:12.435Z,8.24
2023-05-06T16:52:05.550Z,8.24
2023-05-06T16:53:58.494Z,8.22
2023-05-06T16:55:51.546Z,8.21
2023-05-06T16:57:44.338Z,8.20
2023-05-06T16:59:37.856Z,8.20
2023-05-06T17:01:30.826Z,8.21
2023-05-06T17:03:23.769Z,8.21
2023-05-06T17:05:16.797Z,8.21
2023-05-06T17:07:11.409Z,8.19
2023-05-06T17:09:04.537Z,8.19
2023-05-06T17:10:57.393Z,8.17
2023-05-06T17:12:51.089Z,8.17
2023-05-06T17:14:44.071Z,8.16
2023-05-06T17:16:38.705Z,8.15
2023-05-06T17:18:31.634Z,8.15
2023-05-06T17:20:25.380Z,8.15
2023-05-06T17:22:18.352Z,8.15
2023-05-06T17:24:11.704Z,8.15
2023-05-06T17:26:09.780Z,8.14
2023-05-06T17:28:03.441Z,8.15
2023-05-06T17:29:56.384Z,8.15
2023-05-06T17:31:49.956Z,8.14
2023-05-06T17:33:44.184Z,8.13
2023-05-06T17:35:37.091Z,8.11
2023-05-06T17:37:31.061Z,8.10
2023-05-06T17:39:23.894Z,8.09
2023-05-06T17:41:16.736Z,8.09
2023-05-06T17:43:09.786Z,8.08
2023-05-06T17:45:02.596Z,8.07
2023-05-06T17:46:56.868Z,8.07
2023-05-06T17:48:51.400Z,8.06
2023-05-06T17:50:44.243Z,8.07
2023-05-06T17:52:37.209Z,8.07
2023-05-06T17:54:34.927Z,8.07
2023-05-06T17:56:27.791Z,8.07
2023-05-06T17:58:21.665Z,8.06
2023-05-06T18:00:16.472Z,8.06
2023-05-06T18:02:13.967Z,8.06
2023-05-06T18:04:07.031Z,8.05
2023-05-06T18:06:00.217Z,8.05
2023-05-06T18:07:53.824Z,8.04
2023-05-06T18:09:52.493Z,8.02
2023-05-06T18:11:48.184Z,8.00
2023-05-06T18:13:41.052Z,7.99
2023-05-06T18:15:34.175Z,7.99
2023-05-06T18:17:26.984Z,7.98
2023-05-06T18:19:19.879Z,7.98
2023-05-06T18:21:12.813Z,7.97
2023-05-06T18:23:07.539Z,7.98
2023-05-06T18:25:00.567Z,7.97
2023-05-06T18:26:54.479Z,7.96
2023-05-06T18:28:49.380Z,7.95
2023-05-06T18:30:46.082Z,7.95
2023-05-06T18:32:39.564Z,7.94
2023-05-06T18:34:32.531Z,7.94
2023-05-06T18:36:26.990Z,7.92
2023-05-06T18:38:19.997Z,7.91
2023-05-06T18:40:14.551Z,7.91
2023-05-06T18:42:08.555Z,7.91
2023-05-06T18:44:04.524Z,7.91
2023-05-06T18:45:58.280Z,7.92
2023-05-06T18:47:52.897Z,7.94
2023-05-06T18:49:47.468Z,7.94
2023-05-06T18:51:42.374Z,7.94
2023-05-06T18:53:38.991Z,7.95
2023-05-06T18:55:32.813Z,7.96
2023-05-06T18:57:27.677Z,7.95
2023-05-06T18:59:22.961Z,7.93
2023-05-06T19:01:18.204Z,7.92
2023-05-06T19:03:13.062Z,7.91
2023-05-06T19:05:08.906Z,7.90
2023-05-06T19:07:02.654Z,7.89
2023-05-06T19:08:55.532Z,7.89
2023-05-06T19:10:49.665Z,7.88
2023-05-06T19:12:46.365Z,7.87
2023-05-06T19:14:41.577Z,7.86
2023-05-06T19:16:35.388Z,7.85
2023-05-06T19:18:31.388Z,7.83
2023-05-06T19:20:26.529Z,7.82
2023-05-06T19:22:21.280Z,7.81
2023-05-06T19:24:15.969Z,7.82
2023-05-06T19:26:12.649Z,7.81
2023-05-06T19:28:06.943Z,7.81
2023-05-06T19:30:00.438Z,7.81
2023-05-06T19:31:56.133Z,7.80
2023-05-06T19:33:50.984Z,7.78
2023-05-06T19:35:45.652Z,7.77
2023-05-06T19:37:40.643Z,7.77
2023-05-06T19:39:35.270Z,7.77
2023-05-06T19:41:28.972Z,7.78
2023-05-06T19:43:24.288Z,7.76
2023-05-06T19:45:19.180Z,7.75
2023-05-06T19:47:16.437Z,7.74
2023-05-06T19:49:11.257Z,7.73
2023-05-06T19:51:07.223Z,7.73
2023-05-06T19:53:02.807Z,7.72
2023-05-06T19:54:58.331Z,7.71
2023-05-06T19:56:53.116Z,7.70
2023-05-06T19:58:48.081Z,7.68
2023-05-06T20:00:42.492Z,7.69
2023-05-06T20:02:40.888Z,7.69
2023-05-06T20:04:36.430Z,7.69
2023-05-06T20:06:32.646Z,7.70
2023-05-06T20:08:27.245Z,7.71
2023-05-06T20:10:22.713Z,7.73
2023-05-06T20:12:17.531Z,7.73
2023-05-06T20:14:11.245Z,7.74
2023-05-06T20:16:06.126Z,7.73
2023-05-06T20:18:00.614Z,7.73
2023-05-06T20:19:59.369Z,7.73
2023-05-06T20:21:54.871Z,7.74
2023-05-06T20:23:49.151Z,7.74
2023-05-06T20:25:44.499Z,7.74
2023-05-06T20:27:39.856Z,7.72
2023-05-06T20:29:34.132Z,7.72
2023-05-06T20:31:28.847Z,7.71
2023-05-06T20:33:23.546Z,7.71
2023-05-06T20:35:18.618Z,7.70
2023-05-06T20:37:14.132Z,7.71
2023-05-06T20:39:10.749Z,7.70
2023-05-06T20:41:07.640Z,7.69
2023-05-06T20:43:02.151Z,7.68
2023-05-06T20:44:57.484Z,7.67
2023-05-06T20:46:51.869Z,7.67
2023-05-06T20:48:47.376Z,7.68
2023-05-06T20:50:42.469Z,7.67
2023-05-06T20:52:36.389Z,7.66
2023-05-06T20:54:29.337Z,7.65
2023-05-06T20:56:27.706Z,7.63
2023-05-06T20:58:23.278Z,7.63
2023-05-06T21:00:19.445Z,7.63
2023-05-06T21:02:14.344Z,7.61
2023-05-06T21:04:09.182Z,7.61
2023-05-06T21:06:04.290Z,7.62
2023-05-06T21:07:59.665Z,7.62
2023-05-06T21:09:54.686Z,7.63
2023-05-06T21:11:50.030Z,7.64
2023-05-06T21:13:46.080Z,7.64
2023-05-06T21:15:41.918Z,7.64
2023-05-06T21:17:35.601Z,7.63
2023-05-06T21:19:29.254Z,7.63
2023-05-06T21:21:25.515Z,7.62
2023-05-06T21:23:19.193Z,7.62
2023-05-06T21:25:13.420Z,7.63
2023-05-06T21:27:06.546Z,7.61
2023-05-06T21:29:25.082Z,7.60
2023-05-06T21:31:23.411Z,7.60
2023-05-06T21:33:17.684Z,7.59
2023-05-06T21:35:12.200Z,7.59
2023-05-06T21:37:06.242Z,7.58
2023-05-06T21:39:06.451Z,7.58
2023-05-06T21:41:00.423Z,7.58
2023-05-06T21:42:53.786Z,7.56
2023-05-06T21:44:46.614Z,7.55
2023-05-06T21:46:39.837Z,7.54
2023-05-06T21:48:32.901Z,7.53
2023-05-06T21:50:26.365Z,7.55
2023-05-06T21:52:19.286Z,7.62
2023-05-06T21:54:12.135Z,7.66
2023-05-06T21:56:05.185Z,7.69
2023-05-06T21:57:58.133Z,7.71
2023-05-06T21:59:52.108Z,7.71
2023-05-06T22:01:45.003Z,7.68
2023-05-06T22:03:38.115Z,7.65
2023-05-06T22:05:31.309Z,7.65
2023-05-06T22:07:24.104Z,7.63
2023-05-06T22:09:17.153Z,7.63
2023-05-06T22:11:10.341Z,7.62
2023-05-06T22:13:03.882Z,7.61
2023-05-06T22:14:57.007Z,7.59
2023-05-06T22:16:50.487Z,7.58
2023-05-06T22:18:43.566Z,7.56
2023-05-06T22:20:37.838Z,7.55
2023-05-06T22:22:30.773Z,7.54
2023-05-06T22:24:23.846Z,7.52
2023-05-06T22:26:16.767Z,7.51
2023-05-06T22:28:09.802Z,7.51
2023-05-06T22:30:03.780Z,7.50
2023-05-06T22:31:56.867Z,7.49
2023-05-06T22:33:54.602Z,7.48
2023-05-06T22:35:47.434Z,7.47
2023-05-06T22:37:40.289Z,7.46
2023-05-06T22:39:33.127Z,7.46
2023-05-06T22:41:26.183Z,7.45
2023-05-06T22:43:19.025Z,7.44
2023-05-06T22:45:12.148Z,7.44
2023-05-06T22:47:05.432Z,7.44
2023-05-06T22:48:58.586Z,7.41
2023-05-06T22:50:52.882Z,7.40
2023-05-06T22:52:45.713Z,7.39
2023-05-06T22:54:39.071Z,7.38
2023-05-06T22:56:31.915Z,7.36
2023-05-06T22:58:24.770Z,7.34
2023-05-06T23:00:17.926Z,7.33
2023-05-06T23:02:11.680Z,7.32
2023-05-06T23:04:04.915Z,7.31
2023-05-06T23:05:57.892Z,7.31
2023-05-06T23:07:50.730Z,7.31
2023-05-06T23:09:43.553Z,7.29
2023-05-06T23:11:36.433Z,7.30
2023-05-06T23:13:31.313Z,7.30
2023-05-06T23:15:24.159Z,7.30
2023-05-06T23:17:17.075Z,7.30
2023-05-06T23:19:10.056Z,7.29
2023-05-06T23:21:03.007Z,7.28
2023-05-06T23:22:56.058Z,7.27
2023-05-06T23:24:49.932Z,7.27
2023-05-06T23:26:42.770Z,7.28
2023-05-06T23:28:35.822Z,7.28
2023-05-06T23:30:28.675Z,7.28
2023-05-06T23:32:21.511Z,7.29
2023-05-06T23:34:14.359Z,7.28
2023-05-06T23:36:07.306Z,7.29
2023-05-06T23:38:00.184Z,7.29
2023-05-06T23:39:53.414Z,7.29
2023-05-06T23:41:46.261Z,7.29
2023-05-06T23:43:39.103Z,7.27
2023-05-06T23:45:31.954Z,7.26
2023-05-06T23:47:24.854Z,7.26
2023-05-06T23:49:17.741Z,7.25
2023-05-06T23:51:10.696Z,7.25
2023-05-06T23:53:04.158Z,7.23
2023-05-06T23:54:57.100Z,7.23
2023-05-06T23:56:50.864Z,7.25
2023-05-06T23:58:43.716Z,7.25
